Time;durP1;ratioP1;P1;durP2;ratioP2;P2;SDS_P1;SDS_P2;PMS_P1;PMS_P2;Temp;Humidity;BMP_temperature;BMP_pressure;BME280_temperature;BME280_humidity;BME280_pressure;Samples;Min_cycle;Max_cycle;Signal;HPM_P1;HPM_P2
2024/01/22 00:01:16;;;;;;;1.17;1.08;;;;;;;-2.17;32.45;93788.88;4843466;29;20109;-80
2024/01/22 00:03:42;;;;;;;0.82;0.82;;;;;;;-2.18;32.27;93789.06;4837195;29;20027;-79
2024/01/22 00:06:07;;;;;;;1.33;1.23;;;;;;;-2.25;33.02;93783.03;4840746;29;20426;-79
2024/01/22 00:08:33;;;;;;;0.93;0.90;;;;;;;-2.21;32.87;93791.97;4827107;29;20041;-80
2024/01/22 00:10:58;;;;;;;1.30;1.05;;;;;;;-2.21;32.78;93786.84;4826448;29;20080;-79
2024/01/22 00:13:24;;;;;;;1.02;0.93;;;;;;;-2.22;32.27;93783.47;4841872;29;20033;-79
2024/01/22 00:15:50;;;;;;;1.05;0.98;;;;;;;-2.22;32.48;93783.47;4826249;29;20057;-79
2024/01/22 00:18:15;;;;;;;0.90;0.90;;;;;;;-2.22;32.22;93777.56;4843177;29;20070;-80
2024/01/22 00:20:41;;;;;;;1.25;1.00;;;;;;;-2.24;31.89;93777.72;4819827;29;20045;-79
2024/01/22 00:23:06;;;;;;;1.13;1.00;;;;;;;-2.23;32.82;93781.91;4843838;29;20049;-80
2024/01/22 00:25:32;;;;;;;1.08;0.98;;;;;;;-2.25;32.82;93785.59;4826211;29;20072;-80
2024/01/22 00:27:57;;;;;;;1.65;1.10;;;;;;;-2.27;32.09;93778.09;4842931;29;20045;-80
2024/01/22 00:30:23;;;;;;;1.00;1.00;;;;;;;-2.18;32.97;93784.72;4842626;29;20506;-80
2024/01/22 00:32:50;;;;;;;1.02;1.00;;;;;;;-2.19;33.72;93783.13;4825838;29;20461;-80
2024/01/22 00:35:17;;;;;;;1.00;1.00;;;;;;;-2.21;32.65;93781.72;4826939;29;20375;-80
2024/01/22 00:37:43;;;;;;;1.00;0.90;;;;;;;-2.21;33.04;93784.28;4843022;29;20086;-79
2024/01/22 00:40:09;;;;;;;1.10;1.00;;;;;;;-2.18;33.43;93781.38;4840901;29;20305;-80
2024/01/22 00:42:34;;;;;;;1.45;1.00;;;;;;;-2.21;32.96;93781.72;4843036;29;20034;-79
2024/01/22 00:45:00;;;;;;;1.63;1.25;;;;;;;-2.23;33.20;93781.09;4825683;29;20049;-79
2024/01/22 00:47:25;;;;;;;1.20;1.10;;;;;;;-2.23;33.87;93783.66;4841027;29;20045;-79
2024/01/22 00:49:53;;;;;;;1.45;1.10;;;;;;;-2.25;33.73;93780.47;4843111;29;20046;-80
2024/01/22 00:52:19;;;;;;;1.50;1.20;;;;;;;-2.26;33.68;93778.88;4826532;29;20061;-79
2024/01/22 00:54:44;;;;;;;1.90;1.10;;;;;;;-2.27;33.39;93775.53;4826552;29;20565;-80
2024/01/22 00:57:12;;;;;;;1.25;1.10;;;;;;;-2.28;33.12;93771.34;4843203;29;20056;-80
2024/01/22 00:59:37;;;;;;;1.10;1.00;;;;;;;-2.29;32.75;93771.56;4842325;29;20073;-79
2024/01/22 01:02:04;;;;;;;1.27;1.10;;;;;;;-2.27;32.89;93767.00;4843815;29;20041;-80
2024/01/22 01:04:30;;;;;;;0.95;0.95;;;;;;;-2.25;32.52;93767.63;4841780;29;20070;-80
2024/01/22 01:06:56;;;;;;;1.20;1.10;;;;;;;-2.26;32.31;93760.94;4842053;29;20079;-80
2024/01/22 01:09:21;;;;;;;1.00;0.90;;;;;;;-2.26;32.87;93760.94;4839679;29;20046;-80
2024/01/22 01:11:47;;;;;;;1.23;1.00;;;;;;;-2.26;33.06;93768.63;4825517;29;20054;-79
2024/01/22 01:14:12;;;;;;;1.35;1.10;;;;;;;-2.25;32.41;93767.63;4842060;29;20490;-80
2024/01/22 01:16:38;;;;;;;1.25;1.08;;;;;;;-2.25;32.47;93767.63;4839795;29;20066;-80
2024/01/22 01:19:04;;;;;;;1.13;1.02;;;;;;;-2.24;32.64;93769.25;4843425;29;20096;-80
2024/01/22 01:21:29;;;;;;;6.93;3.65;;;;;;;-2.22;32.81;93768.09;4842615;29;20422;-80
2024/01/22 01:23:55;;;;;;;7.53;3.70;;;;;;;-2.21;33.04;93764.53;4844040;29;20038;-80
2024/01/22 01:26:20;;;;;;;9.23;5.03;;;;;;;-2.20;33.41;93775.63;4841843;29;20034;-79
2024/01/22 01:28:47;;;;;;;5.35;3.17;;;;;;;-2.20;33.50;93770.50;4841222;29;20041;-80
2024/01/22 01:31:12;;;;;;;3.50;2.17;;;;;;;-2.20;33.39;93763.59;4843149;29;20422;-79
2024/01/22 01:33:38;;;;;;;3.88;2.33;;;;;;;-2.19;33.94;93767.72;4826554;29;20026;-79
2024/01/22 01:36:04;;;;;;;1.77;1.38;;;;;;;-2.20;34.12;93760.22;4842288;29;20042;-79
2024/01/22 01:38:29;;;;;;;1.20;1.10;;;;;;;-2.20;34.00;93760.22;4842659;29;20037;-80
2024/01/22 01:40:55;;;;;;;1.13;1.00;;;;;;;-2.21;33.20;93761.19;4826592;29;20518;-78
2024/01/22 01:43:20;;;;;;;2.30;1.40;;;;;;;-2.22;33.92;93762.19;4842964;29;20072;-79
2024/01/22 01:45:46;;;;;;;2.03;1.20;;;;;;;-2.23;33.57;93758.00;4843301;29;20038;-80
2024/01/22 01:48:13;;;;;;;2.15;1.38;;;;;;;-2.25;33.90;93741.97;4838060;29;20038;-79
2024/01/22 01:50:39;;;;;;;1.33;1.23;;;;;;;-2.23;33.96;93745.16;4839827;29;20475;-79
2024/01/22 01:53:06;;;;;;;1.42;1.10;;;;;;;-2.24;34.10;93754.66;4841838;29;20581;-79
2024/01/22 01:55:35;;;;;;;1.40;1.20;;;;;;;-2.24;34.18;93758.97;4843267;29;20101;-80
2024/01/22 01:58:01;;;;;;;1.38;1.20;;;;;;;-2.22;33.64;93757.03;4841721;29;20030;-79
2024/01/22 02:00:27;;;;;;;1.45;1.20;;;;;;;-2.38;33.41;93729.78;4809600;29;20045;-80
2024/01/22 02:02:54;;;;;;;1.38;1.20;;;;;;;-2.23;32.23;93751.13;4842399;29;20047;-80
2024/01/22 02:05:20;;;;;;;1.30;1.20;;;;;;;-2.19;32.54;93754.13;4842212;29;20058;-79
2024/01/22 02:07:46;;;;;;;1.65;1.23;;;;;;;-2.16;31.98;93757.13;4842564;29;20418;-79
2024/01/22 02:10:15;;;;;;;5.72;3.03;;;;;;;-2.13;32.04;93761.91;4823132;29;20053;-79
2024/01/22 02:12:41;;;;;;;9.45;5.30;;;;;;;-2.14;31.81;93749.25;4839963;29;20087;-79
2024/01/22 02:15:07;;;;;;;7.00;3.25;;;;;;;-2.10;32.64;93756.41;4842080;29;20133;-79
2024/01/22 02:17:32;;;;;;;4.63;2.60;;;;;;;-2.08;32.95;93751.09;4824546;29;20049;-78
2024/01/22 02:19:58;;;;;;;3.53;2.20;;;;;;;-2.08;33.24;93753.66;4842477;29;20113;-78
2024/01/22 02:22:23;;;;;;;3.70;2.20;;;;;;;-2.08;33.86;93758.81;4841651;29;20046;-80
2024/01/22 02:24:49;;;;;;;3.10;1.67;;;;;;;-2.11;33.51;93748.91;4842925;29;20114;-79
2024/01/22 02:27:15;;;;;;;4.95;1.85;;;;;;;-2.11;33.58;93744.56;4841865;29;20046;-79
2024/01/22 02:29:41;;;;;;;1.95;1.30;;;;;;;-2.12;33.35;93742.16;4842422;29;20042;-79
2024/01/22 02:32:07;;;;;;;1.38;1.17;;;;;;;-2.14;32.83;93742.38;4825890;29;20445;-79
2024/01/22 02:34:33;;;;;;;1.20;1.10;;;;;;;-2.15;33.06;93742.53;4842114;29;20110;-78
2024/01/22 02:36:58;;;;;;;3.80;2.13;;;;;;;-2.14;33.08;93744.09;4823878;29;20049;-79
2024/01/22 02:39:24;;;;;;;5.07;3.08;;;;;;;-2.18;34.33;93730.84;4842347;29;20105;-78
2024/01/22 02:41:49;;;;;;;4.97;2.53;;;;;;;-2.15;33.73;93735.63;4841755;29;20042;-79
2024/01/22 02:44:15;;;;;;;1.63;1.25;;;;;;;-2.18;33.81;93733.41;4823873;29;20042;-79
2024/01/22 02:46:40;;;;;;;3.05;1.80;;;;;;;-2.18;33.24;93730.84;4841927;29;20065;-80
2024/01/22 02:49:09;;;;;;;5.30;3.40;;;;;;;-2.15;32.98;93732.25;4841093;29;20069;-80
2024/01/22 02:51:35;;;;;;;3.35;1.95;;;;;;;-2.08;32.47;93725.44;4841437;29;20034;-79
2024/01/22 02:54:00;;;;;;;2.70;1.58;;;;;;;-2.11;32.23;93723.25;4841068;29;20038;-79
2024/01/22 02:56:26;;;;;;;3.42;1.90;;;;;;;-2.11;31.90;93728.38;4839124;29;20094;-78
2024/01/22 02:58:51;;;;;;;3.53;1.98;;;;;;;-2.14;32.40;93728.72;4822825;29;20070;-79
2024/01/22 03:01:17;;;;;;;4.00;1.90;;;;;;;-2.15;32.50;93727.94;4824320;29;20417;-79
2024/01/22 03:03:42;;;;;;;2.55;1.60;;;;;;;-2.19;32.80;93721.56;4810830;29;20042;-79
2024/01/22 03:06:08;;;;;;;1.67;1.27;;;;;;;-2.20;32.14;93716.63;4825177;29;20042;-79
2024/01/22 03:08:34;;;;;;;4.20;1.50;;;;;;;-2.16;31.79;93730.66;4841255;29;20025;-79
2024/01/22 03:11:00;;;;;;;2.13;1.50;;;;;;;-2.20;31.48;93716.63;4842279;29;20041;-79
2024/01/22 03:13:26;;;;;;;3.75;2.20;;;;;;;-2.32;32.02;93685.47;4841174;29;20081;-80
2024/01/22 03:15:52;;;;;;;5.32;2.55;;;;;;;-2.14;31.18;93718.44;4822463;29;20062;-79
2024/01/22 03:18:17;;;;;;;3.05;1.70;;;;;;;-2.13;32.13;93717.50;4837508;29;20098;-79
2024/01/22 03:20:43;;;;;;;3.55;2.10;;;;;;;-2.14;32.11;93714.13;4841063;29;20037;-79
2024/01/22 03:23:10;;;;;;;4.30;2.47;;;;;;;-2.12;31.47;93717.31;4824736;29;20037;-79
2024/01/22 03:25:35;;;;;;;7.47;3.50;;;;;;;-2.10;30.46;93709.44;4841259;29;20048;-79
2024/01/22 03:28:01;;;;;;;7.45;3.00;;;;;;;-2.12;30.41;93706.25;4841233;29;20045;-79
2024/01/22 03:30:26;;;;;;;4.05;2.30;;;;;;;-2.09;31.48;93703.34;4824078;29;20045;-79
2024/01/22 03:32:52;;;;;;;5.93;3.60;;;;;;;-2.10;30.86;93699.16;4841090;29;20042;-79
2024/01/22 03:35:17;;;;;;;4.88;2.90;;;;;;;-2.10;31.26;93688.91;4820822;29;20077;-79
2024/01/22 03:37:43;;;;;;;4.15;2.50;;;;;;;-2.11;31.15;93695.81;4841926;29;20037;-79
2024/01/22 03:40:11;;;;;;;2.22;1.50;;;;;;;-2.11;30.38;93689.88;4841566;29;20117;-79
2024/01/22 03:42:37;;;;;;;2.90;1.70;;;;;;;-2.15;30.95;93680.94;4836893;29;20042;-79
2024/01/22 03:45:03;;;;;;;1.98;1.38;;;;;;;-2.16;30.78;93684.47;4840271;29;20447;-79
2024/01/22 03:47:29;;;;;;;2.70;1.65;;;;;;;-2.14;30.84;93693.63;4840408;29;20082;-79
2024/01/22 03:49:55;;;;;;;2.10;1.52;;;;;;;-2.12;31.27;93695.97;4836062;29;20037;-80
2024/01/22 03:52:20;;;;;;;1.90;1.20;;;;;;;-2.11;30.99;93700.94;4840774;29;20473;-79
2024/01/22 03:54:46;;;;;;;1.23;1.10;;;;;;;-2.12;30.61;93698.53;4841319;29;20072;-79
2024/01/22 03:57:12;;;;;;;1.02;1.00;;;;;;;-2.06;30.26;93704.75;4839343;29;20037;-79
2024/01/22 03:59:37;;;;;;;1.25;1.10;;;;;;;-2.04;30.73;93713.84;4841655;29;20034;-79
2024/01/22 04:02:04;;;;;;;1.60;1.30;;;;;;;-2.00;30.45;93709.97;4824308;29;20422;-79
2024/01/22 04:04:30;;;;;;;2.42;1.30;;;;;;;-1.95;31.62;93712.00;4822795;29;20065;-79
2024/01/22 04:06:56;;;;;;;1.30;1.20;;;;;;;-2.00;32.16;93704.03;4840778;29;20541;-80
2024/01/22 04:09:21;;;;;;;1.85;1.30;;;;;;;-2.00;32.20;93704.84;4825780;29;20045;-79
2024/01/22 04:11:47;;;;;;;1.80;1.20;;;;;;;-2.02;32.99;93709.34;4831894;29;20038;-79
2024/01/22 04:14:13;;;;;;;2.55;1.60;;;;;;;-2.04;32.76;93708.72;4823587;29;20052;-79
2024/01/22 04:16:38;;;;;;;1.88;1.30;;;;;;;-2.06;32.23;93707.31;4836678;29;20388;-80
2024/01/22 04:19:04;;;;;;;1.05;1.00;;;;;;;-2.05;31.56;93708.88;4807909;29;20131;-79
2024/01/22 04:21:30;;;;;;;3.22;2.10;;;;;;;-2.03;32.11;93702.59;4824392;29;20034;-78
2024/01/22 04:23:56;;;;;;;3.90;2.13;;;;;;;-2.02;32.64;93709.34;4835463;29;20042;-79
2024/01/22 04:26:21;;;;;;;4.07;1.92;;;;;;;-2.04;33.13;93706.16;4839384;29;20114;-79
2024/01/22 04:28:47;;;;;;;2.38;1.55;;;;;;;-2.04;31.78;93708.72;4840339;29;20038;-80
2024/01/22 04:31:12;;;;;;;0.95;0.90;;;;;;;-2.06;31.64;93700.41;4839694;29;20049;-79
2024/01/22 04:33:39;;;;;;;1.88;1.40;;;;;;;-2.03;31.40;93712.06;4824513;29;20038;-79
2024/01/22 04:36:04;;;;;;;3.50;1.80;;;;;;;-1.99;31.75;93706.41;4840847;29;20038;-79
2024/01/22 04:38:30;;;;;;;2.70;1.60;;;;;;;-1.96;31.90;93705.25;4841058;29;20041;-79
2024/01/22 04:40:56;;;;;;;1.75;1.20;;;;;;;-1.96;32.07;93711.19;4843472;29;20076;-79
2024/01/22 04:43:23;;;;;;;1.02;1.00;;;;;;;-1.99;31.73;93703.06;4826648;29;20050;-79
2024/01/22 04:45:49;;;;;;;1.75;1.20;;;;;;;-1.98;31.82;93704.63;4844095;29;20621;-79
2024/01/22 04:48:14;;;;;;;1.70;1.30;;;;;;;-2.02;31.86;93704.22;4844857;29;20174;-78
2024/01/22 04:50:40;;;;;;;0.88;0.88;;;;;;;-2.03;31.53;93705.16;4836861;29;20057;-78
2024/01/22 04:53:06;;;;;;;2.47;1.20;;;;;;;-2.07;31.79;93698.00;4843887;29;20102;-79
2024/01/22 04:55:31;;;;;;;2.53;1.60;;;;;;;-2.07;31.10;93696.25;4826669;29;20148;-79
2024/01/22 04:57:57;;;;;;;1.88;1.40;;;;;;;-2.04;31.18;93693.31;4843511;29;20034;-79
2024/01/22 05:00:22;;;;;;;1.80;1.15;;;;;;;-2.06;30.92;93695.28;4844196;29;20045;-78
2024/01/22 05:02:48;;;;;;;2.13;1.27;;;;;;;-2.08;31.13;93691.31;4844669;29;20044;-80
2024/01/22 05:05:14;;;;;;;0.90;0.90;;;;;;;-2.06;30.37;93692.72;4827552;29;20084;-78
2024/01/22 05:07:40;;;;;;;1.20;1.02;;;;;;;-2.01;29.94;93697.31;4844009;29;20048;-80
2024/01/22 05:10:09;;;;;;;1.45;1.02;;;;;;;-2.02;30.75;93701.66;4843471;29;20046;-79
2024/01/22 05:12:38;;;;;;;2.22;1.27;;;;;;;-2.00;30.29;93697.13;4842553;29;20050;-79
2024/01/22 05:15:05;;;;;;;3.58;1.90;;;;;;;-2.05;31.07;93690.94;4843217;29;20060;-79
2024/01/22 05:17:32;;;;;;;3.42;1.80;;;;;;;-2.02;30.71;93690.59;4843320;29;20121;-78
2024/01/22 05:19:58;;;;;;;2.88;1.60;;;;;;;-2.02;31.28;93691.38;4827916;29;20122;-79
2024/01/22 05:22:24;;;;;;;2.42;1.38;;;;;;;-2.02;31.28;93681.13;4826969;29;20471;-79
2024/01/22 05:24:50;;;;;;;2.00;1.40;;;;;;;-2.08;33.15;93671.56;4843075;29;20049;-79
2024/01/22 05:27:16;;;;;;;2.35;1.50;;;;;;;-2.06;32.90;93673.97;4842335;29;20072;-79
2024/01/22 05:29:42;;;;;;;2.35;1.40;;;;;;;-2.07;33.10;93672.34;4841056;29;20041;-79
2024/01/22 05:32:08;;;;;;;1.50;1.30;;;;;;;-2.06;32.54;93674.75;4843493;29;20057;-79
2024/01/22 05:34:37;;;;;;;1.67;1.20;;;;;;;-2.05;31.37;93681.44;4825034;29;20038;-79
2024/01/22 05:37:02;;;;;;;0.98;0.93;;;;;;;-2.05;31.26;93672.97;4838745;29;20089;-79
2024/01/22 05:39:28;;;;;;;1.63;1.08;;;;;;;-2.02;30.98;93675.19;4842238;29;20037;-79
2024/01/22 05:41:55;;;;;;;1.95;1.05;;;;;;;-1.97;30.73;93678.78;4837034;29;20042;-79
2024/01/22 05:44:21;;;;;;;1.08;1.08;;;;;;;-1.94;31.02;93682.78;4820466;29;20053;-78
2024/01/22 05:46:46;;;;;;;4.60;1.40;;;;;;;-1.94;31.36;93680.19;4828747;29;20398;-80
2024/01/22 05:49:12;;;;;;;2.40;1.50;;;;;;;-1.93;31.22;93690.31;4836855;29;20438;-79
2024/01/22 05:51:37;;;;;;;2.30;1.55;;;;;;;-1.94;31.57;93693.03;4846137;29;20101;-79
2024/01/22 05:54:04;;;;;;;1.77;1.25;;;;;;;-1.94;31.68;93698.16;4846136;29;20046;-78
2024/01/22 05:56:29;;;;;;;1.50;1.13;;;;;;;-1.95;32.07;93699.16;4846370;29;20041;-79
2024/01/22 05:58:56;;;;;;;1.15;1.00;;;;;;;-1.91;31.71;93698.63;4845577;29;20053;-79
2024/01/22 06:01:24;;;;;;;1.20;1.10;;;;;;;-1.91;31.71;93690.13;4842924;29;20522;-78
2024/01/22 06:03:50;;;;;;;2.88;1.50;;;;;;;-1.92;31.22;93685.94;4840374;29;20069;-79
2024/01/22 06:06:16;;;;;;;2.35;1.40;;;;;;;-1.95;32.42;93676.84;4839536;29;20049;-79
2024/01/22 06:08:43;;;;;;;1.83;1.30;;;;;;;-1.93;32.50;93682.59;4839594;29;20094;-79
2024/01/22 06:11:11;;;;;;;1.90;1.33;;;;;;;-1.90;33.92;93676.31;4841787;29;20041;-78
2024/01/22 06:13:39;;;;;;;1.75;1.33;;;;;;;-1.92;33.87;93671.34;4845219;29;20045;-79
2024/01/22 06:16:07;;;;;;;1.10;1.00;;;;;;;-1.92;33.65;93673.91;4842348;29;20057;-78
2024/01/22 06:18:34;;;;;;;2.45;1.10;;;;;;;-1.90;33.32;93678.88;4825110;29;20045;-79
2024/01/22 06:21:00;;;;;;;1.17;0.98;;;;;;;-1.90;33.02;93673.75;4837972;29;20050;-78
2024/01/22 06:23:25;;;;;;;2.28;1.42;;;;;;;-1.86;32.01;93674.19;4822996;29;20049;-78
2024/01/22 06:25:51;;;;;;;0.93;0.93;;;;;;;-1.86;31.35;93672.41;4839291;29;20038;-78
2024/01/22 06:28:16;;;;;;;1.25;1.10;;;;;;;-1.84;31.44;93677.38;4842248;29;20066;-78
2024/01/22 06:30:43;;;;;;;1.10;0.90;;;;;;;-1.85;31.85;93665.50;4845353;29;20038;-78
2024/01/22 06:33:09;;;;;;;0.80;0.80;;;;;;;-1.84;32.60;93661.97;4839322;29;20483;-79
2024/01/22 06:35:34;;;;;;;1.17;1.08;;;;;;;-1.84;32.64;93656.84;4826174;29;20072;-79
2024/01/22 06:38:00;;;;;;;1.52;1.10;;;;;;;-1.83;34.09;93645.56;4838620;29;20129;-79
2024/01/22 06:40:26;;;;;;;1.92;1.20;;;;;;;-1.84;33.70;93649.91;4844046;29;20089;-79
2024/01/22 06:42:51;;;;;;;1.08;0.98;;;;;;;-1.78;33.03;93656.09;4843342;29;20034;-78
2024/01/22 06:45:19;;;;;;;1.05;0.95;;;;;;;-1.73;33.79;93658.94;4841861;29;20277;-79
2024/01/22 06:47:44;;;;;;;1.67;1.00;;;;;;;-1.68;34.10;93661.72;4821594;29;20038;-79
2024/01/22 06:50:11;;;;;;;1.02;1.02;;;;;;;-1.54;33.21;93663.44;4819952;29;20054;-78
2024/01/22 06:52:37;;;;;;;1.25;1.00;;;;;;;-1.47;31.39;93661.72;4827851;29;20109;-78
2024/01/22 06:55:03;;;;;;;0.88;0.88;;;;;;;-1.36;31.62;93665.59;4838338;29;20066;-78
2024/01/22 06:57:29;;;;;;;0.85;0.85;;;;;;;-1.31;33.18;93647.84;4833438;29;20045;-79
2024/01/22 06:59:56;;;;;;;0.90;0.90;;;;;;;-1.28;32.79;93659.53;4838064;29;20038;-78
2024/01/22 07:02:27;;;;;;;1.00;0.90;;;;;;;-1.20;31.98;93658.59;4829851;29;20038;-79
2024/01/22 07:04:55;;;;;;;0.95;0.95;;;;;;;-1.22;32.37;93647.72;4837401;29;20049;-78
2024/01/22 07:07:21;;;;;;;1.10;1.00;;;;;;;-1.17;33.06;93656.47;4831552;29;20033;-78
2024/01/22 07:09:47;;;;;;;1.60;1.10;;;;;;;-1.12;32.59;93656.72;4833699;29;20051;-79
2024/01/22 07:12:12;;;;;;;1.50;1.10;;;;;;;-0.98;31.92;93662.75;4828647;29;20044;-78
2024/01/22 07:14:39;;;;;;;1.02;0.90;;;;;;;-0.85;31.87;93667.97;4836217;29;20129;-78
2024/01/22 07:17:04;;;;;;;4.78;1.08;;;;;;;-0.77;33.52;93661.09;4836658;29;20060;-78
2024/01/22 07:19:30;;;;;;;1.00;0.95;;;;;;;-0.02;33.09;93669.84;4826907;29;20034;-78
2024/01/22 07:21:55;;;;;;;0.80;0.80;;;;;;;1.22;34.02;93669.47;4833118;29;20132;-78
2024/01/22 07:24:21;;;;;;;1.08;0.98;;;;;;;2.47;31.52;93658.94;4834292;29;20057;-79
2024/01/22 07:26:46;;;;;;;1.10;1.00;;;;;;;3.70;30.74;93665.38;4837303;29;20044;-80
2024/01/22 07:29:14;;;;;;;0.82;0.80;;;;;;;4.95;29.16;93656.28;4837361;29;20443;-79
2024/01/22 07:31:40;;;;;;;0.80;0.80;;;;;;;6.17;27.47;93654.00;4838286;29;20041;-80
2024/01/22 07:34:05;;;;;;;0.88;0.85;;;;;;;6.96;26.21;93654.19;4825201;29;20082;-80
2024/01/22 07:36:31;;;;;;;1.13;1.02;;;;;;;7.91;24.76;93660.31;4838508;29;20033;-80
2024/01/22 07:38:57;;;;;;;1.20;0.82;;;;;;;8.26;22.71;93659.19;4834459;29;20494;-80
2024/01/22 07:41:23;;;;;;;1.48;0.88;;;;;;;8.42;22.37;93654.97;4820487;29;20125;-79
2024/01/22 07:43:49;;;;;;;0.70;0.70;;;;;;;7.98;21.65;93662.75;4838230;29;20033;-79
2024/01/22 07:46:14;;;;;;;0.73;0.70;;;;;;;7.44;21.40;93662.50;4838474;29;20559;-79
2024/01/22 07:48:40;;;;;;;1.15;0.90;;;;;;;6.76;21.58;93656.44;4835764;29;20530;-79
2024/01/22 07:51:06;;;;;;;0.70;0.70;;;;;;;6.65;22.32;93652.84;4837264;29;20420;-79
2024/01/22 07:53:31;;;;;;;2.05;0.90;;;;;;;6.46;22.61;93655.66;4820430;29;20050;-79
2024/01/22 07:55:57;;;;;;;0.75;0.75;;;;;;;5.98;22.89;93664.56;4837866;29;20038;-79
2024/01/22 07:58:23;;;;;;;1.00;0.90;;;;;;;6.51;22.57;93661.94;4816534;29;20038;-80
2024/01/22 08:00:48;;;;;;;1.23;0.80;;;;;;;7.01;21.60;93663.91;4841171;29;20049;-80
2024/01/22 08:03:15;;;;;;;1.13;0.80;;;;;;;7.28;21.10;93657.03;4821063;29;20041;-79
2024/01/22 08:05:40;;;;;;;1.75;0.90;;;;;;;7.17;22.03;93655.31;4838115;29;20038;-80
2024/01/22 08:08:09;;;;;;;1.10;0.90;;;;;;;7.71;21.23;93655.59;4816620;29;20042;-80
2024/01/22 08:10:36;;;;;;;1.38;0.98;;;;;;;8.56;20.82;93650.16;4837777;29;20536;-80
2024/01/22 08:13:03;;;;;;;0.90;0.90;;;;;;;9.88;19.92;93652.28;4823255;29;20049;-80
2024/01/22 08:15:28;;;;;;;2.55;1.55;;;;;;;10.41;19.84;93653.09;4840997;29;20053;-80
2024/01/22 08:17:54;;;;;;;2.78;1.63;;;;;;;11.18;18.71;93644.63;4843862;29;20042;-80
2024/01/22 08:20:19;;;;;;;1.65;1.20;;;;;;;11.48;18.51;93651.72;4812124;29;20068;-80
2024/01/22 08:22:46;;;;;;;2.58;1.30;;;;;;;11.30;18.78;93647.78;4843196;29;20041;-80
2024/01/22 08:25:18;;;;;;;1.42;1.08;;;;;;;11.17;19.46;93651.72;4835751;29;20066;-81
2024/01/22 08:27:47;;;;;;;2.03;1.15;;;;;;;11.48;18.77;93650.94;4841204;29;20042;-80
2024/01/22 08:30:13;;;;;;;2.08;1.10;;;;;;;11.87;18.30;93644.13;4843644;29;20038;-80
2024/01/22 08:32:38;;;;;;;1.55;1.08;;;;;;;13.10;17.73;93640.19;4843232;29;20579;-80
2024/01/22 08:35:04;;;;;;;1.55;1.10;;;;;;;14.03;18.49;93637.63;4844104;29;20098;-81
2024/01/22 08:37:30;;;;;;;2.03;1.00;;;;;;;14.27;17.33;93642.88;4844364;29;20046;-80
2024/01/22 08:39:57;;;;;;;1.48;1.02;;;;;;;13.50;16.78;93639.13;4827305;29;20491;-80
2024/01/22 08:42:24;;;;;;;1.30;1.00;;;;;;;13.64;18.08;93636.63;4841400;29;20406;-81
2024/01/22 08:44:50;;;;;;;0.75;0.75;;;;;;;13.70;15.98;93632.91;4804975;29;20466;-80
2024/01/22 08:47:16;;;;;;;1.40;0.80;;;;;;;13.41;15.47;93638.16;4843731;29;20042;-81
2024/01/22 08:49:42;;;;;;;2.05;0.80;;;;;;;13.08;15.85;93643.09;4843573;29;20129;-80
2024/01/22 08:52:08;;;;;;;0.77;0.68;;;;;;;13.11;15.13;93642.53;4842210;29;20038;-81
2024/01/22 08:54:33;;;;;;;1.05;0.90;;;;;;;13.26;18.15;93635.59;4843325;29;20049;-81
2024/01/22 08:56:59;;;;;;;1.85;1.00;;;;;;;12.75;19.29;93628.06;4841502;29;20048;-80
2024/01/22 08:59:24;;;;;;;2.08;1.30;;;;;;;11.63;19.99;93638.59;4825936;29;20055;-80
2024/01/22 09:01:50;;;;;;;1.80;1.23;;;;;;;11.03;20.53;93634.91;4841152;29;20054;-80
2024/01/22 09:04:16;;;;;;;1.55;1.00;;;;;;;10.57;20.42;93645.31;4825299;29;20030;-80
2024/01/22 09:06:42;;;;;;;1.15;0.98;;;;;;;10.65;20.45;93641.38;4841714;29;20038;-80
2024/01/22 09:09:09;;;;;;;1.40;1.05;;;;;;;9.97;20.48;93639.53;4841007;29;20133;-80
2024/01/22 09:11:35;;;;;;;1.13;1.00;;;;;;;9.36;21.33;93648.53;4840941;29;20046;-80
2024/01/22 09:14:01;;;;;;;0.93;0.85;;;;;;;9.26;20.45;93645.84;4840992;29;20394;-80
2024/01/22 09:16:27;;;;;;;1.52;1.08;;;;;;;9.13;21.05;93647.03;4841044;29;20129;-80
2024/01/22 09:18:53;;;;;;;1.55;1.15;;;;;;;8.74;23.06;93655.03;4833658;29;20578;-80
2024/01/22 09:21:18;;;;;;;2.83;1.13;;;;;;;7.96;24.17;93653.59;4839415;29;20060;-80
2024/01/22 09:23:44;;;;;;;1.98;1.23;;;;;;;7.78;24.40;93646.81;4833859;29;20031;-80
2024/01/22 09:26:10;;;;;;;1.70;1.13;;;;;;;7.97;24.55;93650.75;4839663;29;20038;-80
2024/01/22 09:28:35;;;;;;;1.23;1.00;;;;;;;7.84;23.87;93658.91;4836376;29;20050;-80
2024/01/22 09:31:01;;;;;;;1.90;1.25;;;;;;;7.67;24.96;93653.69;4840615;29;20041;-79
2024/01/22 09:33:27;;;;;;;1.25;0.98;;;;;;;6.94;25.02;93655.44;4840677;29;20045;-81
2024/01/22 09:35:53;;;;;;;1.77;1.15;;;;;;;6.52;25.77;93659.13;4840770;29;20369;-81
2024/01/22 09:38:19;;;;;;;3.75;1.80;;;;;;;6.21;26.19;93661.16;4840847;29;20091;-80
2024/01/22 09:40:44;;;;;;;2.85;1.60;;;;;;;6.11;25.77;93660.94;4841274;29;20038;-80
2024/01/22 09:43:10;;;;;;;2.17;1.27;;;;;;;6.13;25.84;93661.50;4840029;29;20110;-80
2024/01/22 09:45:36;;;;;;;1.77;1.10;;;;;;;6.07;24.76;93652.00;4844110;29;20046;-80
2024/01/22 09:48:03;;;;;;;1.38;1.00;;;;;;;6.05;23.43;93641.84;4822852;29;20038;-82
2024/01/22 09:50:29;;;;;;;3.10;1.13;;;;;;;6.17;25.30;93648.81;4840793;29;20049;-81
2024/01/22 09:53:04;;;;;;;1.83;1.17;;;;;;;6.12;25.57;93653.91;4834994;29;20121;-80
2024/01/22 09:55:30;;;;;;;1.73;1.17;;;;;;;6.23;26.03;93653.09;4837783;29;20128;-79
2024/01/22 09:57:59;;;;;;;2.30;1.27;;;;;;;6.22;25.98;93665.31;4839890;29;20082;-80
2024/01/22 10:00:26;;;;;;;1.80;1.17;;;;;;;6.08;26.26;93652.78;4839136;29;20042;-81
2024/01/22 10:02:56;;;;;;;3.42;1.67;;;;;;;6.11;26.35;93652.34;4840566;29;20106;-81
2024/01/22 10:05:22;;;;;;;2.47;1.30;;;;;;;6.12;26.98;93643.53;4838029;29;20410;-81
2024/01/22 10:07:48;;;;;;;10.00;4.55;;;;;;;6.18;26.58;93642.63;4835432;29;20026;-80
2024/01/22 10:10:16;;;;;;;1.60;1.05;;;;;;;6.14;26.99;93647.47;4839694;29;20042;-80
2024/01/22 10:13:07;;;;;;;1.48;1.05;;;;;;;6.28;25.60;93642.78;4835941;29;20033;-80
2024/01/22 10:15:37;;;;;;;1.38;1.00;;;;;;;6.20;23.35;93646.56;4836177;29;20058;-80
2024/01/22 10:18:14;;;;;;;1.20;0.88;;;;;;;6.47;24.38;93646.03;4835477;29;20045;-80
2024/01/22 10:20:41;;;;;;;1.08;0.80;;;;;;;6.82;23.33;93637.25;4838869;29;20033;-80
2024/01/22 10:23:07;;;;;;;2.13;1.20;;;;;;;6.98;24.17;93643.53;4821852;29;20033;-80
2024/01/22 10:25:33;;;;;;;1.75;1.08;;;;;;;7.14;24.25;93641.94;4837473;29;20053;-80
2024/01/22 10:28:16;;;;;;;1.92;1.25;;;;;;;7.52;24.65;93636.06;4834780;29;20089;-81
2024/01/22 10:30:44;;;;;;;2.67;1.40;;;;;;;7.30;24.61;93630.78;4838749;29;20106;-81
2024/01/22 10:33:17;;;;;;;2.88;1.40;;;;;;;7.18;24.10;93625.66;4831539;29;20542;-82
2024/01/22 10:35:46;;;;;;;2.00;1.30;;;;;;;7.13;25.82;93628.16;4836558;29;20049;-81
2024/01/22 10:38:21;;;;;;;4.85;1.45;;;;;;;6.83;27.51;93618.03;4838836;29;20046;-81
2024/01/22 10:40:47;;;;;;;2.08;1.30;;;;;;;6.91;27.71;93614.25;4835411;29;20052;-81
2024/01/22 10:43:26;;;;;;;1.55;1.10;;;;;;;6.83;27.14;93608.41;4837530;29;20453;-80
2024/01/22 10:45:54;;;;;;;2.10;1.17;;;;;;;6.65;26.97;93611.22;4833092;29;20532;-80
2024/01/22 10:48:25;;;;;;;2.25;1.40;;;;;;;6.86;28.11;93597.53;4838381;29;20026;-80
2024/01/22 10:50:51;;;;;;;1.88;1.17;;;;;;;6.79;24.06;93596.09;4839114;29;20333;-79
2024/01/22 10:53:19;;;;;;;2.67;1.52;;;;;;;6.60;26.31;93587.72;4836333;29;20064;-80
2024/01/22 10:56:04;;;;;;;1.60;1.20;;;;;;;6.64;26.68;93578.41;4840093;29;20034;-81
2024/01/22 10:58:43;;;;;;;2.13;1.30;;;;;;;6.52;28.05;93575.88;4838597;29;20461;-80
2024/01/22 11:01:14;;;;;;;2.78;1.48;;;;;;;6.60;29.19;93572.13;4823298;29;20046;-81
2024/01/22 11:03:44;;;;;;;5.60;1.75;;;;;;;6.75;28.66;93574.97;4839776;29;20514;-82
2024/01/22 11:06:11;;;;;;;5.60;1.65;;;;;;;6.74;28.89;93565.59;4839929;29;20033;-80
2024/01/22 11:08:38;;;;;;;3.90;1.42;;;;;;;6.75;28.56;93555.97;4836158;29;20034;-81
2024/01/22 11:11:05;;;;;;;27.60;11.95;;;;;;;6.83;27.69;93563.38;4840057;29;20034;-80
2024/01/22 11:13:30;;;;;;;11.10;4.43;;;;;;;6.83;28.23;93561.56;4837692;29;20136;-80
2024/01/22 11:15:57;;;;;;;3.72;1.77;;;;;;;6.85;26.96;93564.72;4840277;29;20118;-80
2024/01/22 11:18:23;;;;;;;5.03;1.60;;;;;;;6.96;26.69;93565.69;4838847;29;20044;-79
2024/01/22 11:21:10;;;;;;;1.05;0.90;;;;;;;7.03;25.83;93562.91;4822369;29;20033;-79
2024/01/22 11:23:36;;;;;;;6.78;3.08;;;;;;;7.17;24.74;93553.75;4837426;29;20565;-80
2024/01/22 11:26:10;;;;;;;6.05;2.40;;;;;;;7.24;27.22;93562.16;4838734;29;20034;-80
2024/01/22 11:28:36;;;;;;;2.85;1.35;;;;;;;7.05;29.08;93561.66;4836815;29;20038;-80
2024/01/22 11:31:02;;;;;;;2.90;1.52;;;;;;;7.06;28.31;93567.63;4832598;29;20060;-80
2024/01/22 11:33:31;;;;;;;1.20;1.02;;;;;;;6.98;24.41;93568.84;4837044;29;20034;-80